Time;durP1;ratioP1;P1;durP2;ratioP2;P2;SDS_P1;SDS_P2;PMS_P1;PMS_P2;Temp;Humidity;BMP_temperature;BMP_pressure;BME280_temperature;BME280_humidity;BME280_pressure;Samples;Min_cycle;Max_cycle;Signal;HPM_P1;HPM_P2
2024/04/10 00:00:59;;;;;;;8.00;4.90;;;;;;;12.71;54.05;99605.25;107136;1261;67905;-38
2024/04/10 00:03:28;;;;;;;11.50;5.10;;;;;;;12.71;54.08;99602.83;107193;1256;72728;-38
2024/04/10 00:05:59;;;;;;;7.50;4.50;;;;;;;12.69;54.36;99601.02;107069;1256;61031;-38
2024/04/10 00:08:27;;;;;;;8.90;4.60;;;;;;;12.67;54.31;99604.33;107115;1256;61141;-38
2024/04/10 00:10:55;;;;;;;8.30;4.80;;;;;;;12.64;54.21;99603.97;107106;1256;74646;-38
2024/04/10 00:13:22;;;;;;;9.80;5.30;;;;;;;12.62;54.30;99604.49;107067;1256;67582;-38
2024/04/10 00:16:06;;;;;;;9.00;5.00;;;;;;;12.58;54.41;99602.58;107105;1256;72966;-38
2024/04/10 00:18:35;;;;;;;9.20;5.20;;;;;;;12.55;54.45;99609.05;107130;1256;61101;-38
2024/04/10 00:21:03;;;;;;;10.70;5.40;;;;;;;12.52;54.44;99607.55;107113;1256;61162;-38
2024/04/10 00:23:30;;;;;;;6.30;4.50;;;;;;;12.50;54.56;99607.04;107084;1256;74687;-38
2024/04/10 00:25:59;;;;;;;7.20;5.00;;;;;;;12.46;54.82;99602.80;107127;1256;66308;-38
2024/04/10 00:28:28;;;;;;;9.00;5.00;;;;;;;12.44;54.89;99606.71;107138;1258;72699;-39
2024/04/10 00:30:56;;;;;;;7.90;4.70;;;;;;;12.41;55.35;99608.54;107167;1257;61209;-38
2024/04/10 00:33:23;;;;;;;8.90;5.10;;;;;;;12.39;55.57;99607.10;107217;1257;61337;-38
2024/04/10 00:36:01;;;;;;;7.10;5.00;;;;;;;12.35;55.41;99608.35;107223;1257;73498;-39
2024/04/10 00:38:30;;;;;;;9.70;4.90;;;;;;;12.31;55.37;99608.52;107141;1257;67760;-39
2024/04/10 00:41:03;;;;;;;7.30;4.60;;;;;;;12.28;55.55;99611.05;107248;1257;72673;-39
2024/04/10 00:43:31;;;;;;;8.00;5.10;;;;;;;12.25;56.96;99615.02;106540;1261;1002881;-39
2024/04/10 00:46:08;;;;;;;11.00;4.60;;;;;;;12.20;57.27;99618.92;107271;1257;61122;-39
2024/04/10 00:48:39;;;;;;;10.40;4.90;;;;;;;12.18;56.42;99621.68;107240;1257;73446;-39
2024/04/10 00:51:07;;;;;;;7.00;4.60;;;;;;;12.16;56.08;99624.83;107238;1256;66878;-39
2024/04/10 00:53:35;;;;;;;8.70;5.20;;;;;;;12.16;55.70;99623.42;107211;1257;73163;-39
2024/04/10 00:56:03;;;;;;;10.50;4.90;;;;;;;12.16;55.69;99624.75;107081;1257;189667;-39
2024/04/10 01:01:10;;;;;;;12.40;5.00;;;;;;;12.18;56.09;99624.30;104212;1292;600917;-37
2024/04/10 01:03:38;;;;;;;8.10;5.10;;;;;;;12.16;57.27;99626.06;106685;1267;60290;-38
2024/04/10 01:06:10;;;;;;;8.20;5.00;;;;;;;12.13;58.57;99628.11;106647;1267;60092;-38
2024/04/10 01:08:38;;;;;;;8.80;5.10;;;;;;;12.09;58.15;99631.79;106587;1267;73072;-38
2024/04/10 01:11:06;;;;;;;11.70;4.60;;;;;;;12.05;58.19;99632.57;106623;1267;67775;-38
2024/04/10 01:13:34;;;;;;;7.90;4.90;;;;;;;12.02;58.61;99636.63;106738;1267;72737;-38
2024/04/10 01:16:02;;;;;;;8.30;5.20;;;;;;;11.99;58.31;99636.11;106711;1264;59546;-38
2024/04/10 01:18:30;;;;;;;7.80;4.90;;;;;;;11.96;57.97;99640.00;106807;1264;59749;-38
2024/04/10 01:20:58;;;;;;;9.80;5.20;;;;;;;11.92;57.66;99641.58;106700;1264;73089;-38
2024/04/10 01:23:25;;;;;;;10.50;4.40;;;;;;;11.88;57.52;99639.86;107215;1256;65364;-38
2024/04/10 01:25:53;;;;;;;6.30;4.40;;;;;;;11.85;57.56;99641.05;107193;1257;72683;-38
2024/04/10 01:28:20;;;;;;;7.90;4.20;;;;;;;11.81;57.60;99643.63;107195;1257;60197;-38
2024/04/10 01:30:48;;;;;;;6.70;4.50;;;;;;;11.77;57.66;99640.53;107245;1257;60569;-38
2024/04/10 01:33:15;;;;;;;10.90;4.70;;;;;;;11.73;57.63;99638.75;107213;1256;73393;-38
2024/04/10 01:35:43;;;;;;;10.80;5.00;;;;;;;11.71;57.92;99641.71;107253;1256;67290;-38
2024/04/10 01:38:10;;;;;;;8.00;5.10;;;;;;;11.68;57.59;99644.83;107237;1257;71378;-38
2024/04/10 01:40:39;;;;;;;8.90;4.90;;;;;;;11.65;57.45;99649.81;107219;1257;59240;-38
2024/04/10 01:43:06;;;;;;;8.30;4.60;;;;;;;11.61;57.64;99650.77;107353;1255;60443;-38
2024/04/10 01:45:36;;;;;;;10.40;4.90;;;;;;;11.59;57.93;99646.52;107267;1257;72598;-38
2024/04/10 01:48:04;;;;;;;6.90;4.40;;;;;;;11.57;58.47;99645.86;107262;1257;67629;-38
2024/04/10 01:50:33;;;;;;;7.40;5.10;;;;;;;11.55;58.91;99646.06;107232;1257;71339;-38
2024/04/10 01:53:00;;;;;;;7.30;4.60;;;;;;;11.53;59.36;99645.47;107231;1257;59323;-38
2024/04/10 01:55:28;;;;;;;7.90;4.60;;;;;;;11.52;59.48;99650.48;107264;1255;60330;-38
2024/04/10 01:57:55;;;;;;;8.20;5.50;;;;;;;11.50;59.47;99650.86;107256;1257;73923;-38
2024/04/10 02:00:25;;;;;;;7.70;4.70;;;;;;;11.49;59.34;99653.22;107230;1257;67963;-38
2024/04/10 02:02:53;;;;;;;;;;;;;;;11.47;59.19;99656.61;107163;1256;73955;-38
2024/04/10 02:05:21;;;;;;;10.00;4.20;;;;;;;11.44;58.95;99659.79;107174;1255;60530;-38
2024/04/10 02:07:48;;;;;;;9.60;4.80;;;;;;;11.41;58.83;99662.54;107111;1256;59588;-38
2024/04/10 02:10:16;;;;;;;7.30;4.80;;;;;;;11.38;58.68;99663.85;107288;1257;73835;-38
2024/04/10 02:12:43;;;;;;;7.80;4.50;;;;;;;11.36;58.56;99667.56;107321;1256;67635;-38
2024/04/10 02:15:11;;;;;;;11.50;4.70;;;;;;;11.35;58.49;99667.05;107255;1256;71379;-38
2024/04/10 02:17:38;;;;;;;11.70;5.50;;;;;;;11.33;58.53;99661.89;107223;1257;60543;-38
2024/04/10 02:20:07;;;;;;;9.70;5.00;;;;;;;11.32;58.43;99664.99;107191;1256;60518;-38
2024/04/10 02:22:35;;;;;;;8.30;5.00;;;;;;;11.33;58.51;99661.89;107279;1257;72619;-38
2024/04/10 02:25:04;;;;;;;9.10;4.50;;;;;;;11.30;58.54;99661.14;107264;1256;66265;-38
2024/04/10 02:27:31;;;;;;;11.30;4.80;;;;;;;11.28;58.54;99663.03;107219;1258;71465;-38
2024/04/10 02:29:59;;;;;;;8.90;4.70;;;;;;;11.26;58.80;99655.80;107160;1256;60489;-38
2024/04/10 02:32:26;;;;;;;9.20;5.50;;;;;;;11.25;58.82;99658.16;107180;1257;60409;-38
2024/04/10 02:34:54;;;;;;;8.90;5.10;;;;;;;11.22;59.01;99655.95;107193;1257;72262;-38
2024/04/10 02:37:23;;;;;;;8.50;5.40;;;;;;;11.20;59.58;99654.34;107227;1256;67904;-38
2024/04/10 02:39:51;;;;;;;9.70;4.80;;;;;;;11.17;59.87;99658.39;107268;1257;71462;-38
2024/04/10 02:42:19;;;;;;;6.80;4.70;;;;;;;11.14;59.83;99660.17;107189;1257;60648;-38
2024/04/10 02:44:51;;;;;;;9.30;4.80;;;;;;;11.10;59.68;99658.62;107247;1257;60449;-38
2024/04/10 02:47:21;;;;;;;8.70;5.30;;;;;;;11.08;59.87;99664.79;107246;1257;74236;-38
2024/04/10 02:49:49;;;;;;;6.40;4.60;;;;;;;11.02;59.76;99658.92;107195;1256;66328;-38
2024/04/10 02:52:17;;;;;;;14.30;5.00;;;;;;;11.04;59.49;99666.88;107165;1257;72321;-38
2024/04/10 02:54:44;;;;;;;8.00;5.10;;;;;;;11.01;59.51;99662.84;107182;1257;60326;-38
2024/04/10 02:57:11;;;;;;;9.60;4.70;;;;;;;10.99;59.49;99656.98;107129;1257;60415;-38
2024/04/10 02:59:39;;;;;;;7.50;4.70;;;;;;;10.98;59.64;99658.84;107232;1262;73886;-38
2024/04/10 03:02:07;;;;;;;9.00;4.80;;;;;;;10.95;59.87;99660.39;107261;1256;67734;-38
2024/04/10 03:04:35;;;;;;;11.00;4.70;;;;;;;10.92;59.89;99661.71;107200;1257;72646;-37
2024/04/10 03:07:03;;;;;;;7.20;4.90;;;;;;;10.89;60.06;99660.48;106485;1256;1003499;-38
2024/04/10 03:09:30;;;;;;;10.30;5.40;;;;;;;10.87;60.10;99664.41;107191;1257;60373;-38
2024/04/10 03:11:58;;;;;;;9.40;4.70;;;;;;;10.85;60.01;99664.36;107223;1257;73824;-38
2024/04/10 03:14:26;;;;;;;9.50;5.20;;;;;;;10.82;60.11;99664.08;107511;1253;67658;-37
2024/04/10 03:16:54;;;;;;;11.80;4.90;;;;;;;10.80;60.11;99668.59;107534;1257;72758;-37
2024/04/10 03:19:22;;;;;;;11.20;6.20;;;;;;;10.77;60.20;99666.83;107544;1253;59592;-37
2024/04/10 03:21:49;;;;;;;8.10;5.10;;;;;;;10.74;60.41;99669.08;107492;1254;59688;-37
2024/04/10 03:24:17;;;;;;;9.60;5.00;;;;;;;10.72;60.64;99669.02;107474;1253;74514;-38
2024/04/10 03:26:44;;;;;;;10.00;4.80;;;;;;;10.75;60.65;99668.92;107560;1253;67887;-38
2024/04/10 03:29:12;;;;;;;12.00;4.60;;;;;;;10.81;60.68;99667.77;107497;1254;72976;-38
2024/04/10 03:31:39;;;;;;;7.10;4.40;;;;;;;10.84;61.04;99668.75;107524;1253;60223;-38
2024/04/10 03:34:07;;;;;;;11.00;4.90;;;;;;;10.87;62.39;99665.27;107491;1254;60310;-38
2024/04/10 03:36:34;;;;;;;7.10;4.30;;;;;;;10.89;62.78;99669.17;107585;1254;73856;-38
2024/04/10 03:39:01;;;;;;;11.50;5.10;;;;;;;10.90;62.50;99669.05;107504;1254;68018;-38
2024/04/10 03:41:29;;;;;;;9.80;5.00;;;;;;;10.93;62.37;99668.40;107516;1254;72712;-38
2024/04/10 03:43:57;;;;;;;10.20;5.10;;;;;;;10.95;62.06;99668.52;107516;1254;59408;-38
2024/04/10 03:46:24;;;;;;;12.10;4.30;;;;;;;10.97;61.78;99673.09;107516;1254;58767;-38
2024/04/10 03:48:52;;;;;;;9.10;4.80;;;;;;;10.99;61.44;99667.53;107456;1254;72790;-38
2024/04/10 03:51:19;;;;;;;10.50;5.00;;;;;;;11.00;61.41;99673.13;107391;1254;67612;-38
2024/04/10 03:53:47;;;;;;;5.70;4.30;;;;;;;11.02;61.13;99673.73;107496;1253;72457;-38
2024/04/10 03:56:14;;;;;;;13.00;5.20;;;;;;;11.03;61.30;99678.46;107396;1259;60215;-38
2024/04/10 03:58:48;;;;;;;10.10;4.80;;;;;;;11.05;61.43;99675.02;107489;1254;60284;-38
2024/04/10 04:01:18;;;;;;;12.20;4.90;;;;;;;11.05;61.44;99673.17;107439;1258;72629;-37
2024/04/10 04:03:45;;;;;;;8.90;5.20;;;;;;;11.08;61.87;99670.35;107520;1259;67589;-37
2024/04/10 04:06:14;;;;;;;8.50;4.90;;;;;;;11.10;62.17;99673.90;107520;1254;72655;-37
2024/04/10 04:08:42;;;;;;;9.70;4.40;;;;;;;11.18;62.27;99677.17;107475;1254;61706;-37
2024/04/10 04:11:09;;;;;;;9.60;4.70;;;;;;;11.29;62.23;99678.81;107550;1254;60423;-37
2024/04/10 04:13:37;;;;;;;8.00;4.40;;;;;;;11.37;61.99;99682.14;107568;1254;73851;-37
2024/04/10 04:16:06;;;;;;;6.90;4.50;;;;;;;11.42;62.00;99682.88;107506;1254;66306;-37
2024/04/10 04:18:34;;;;;;;6.60;4.50;;;;;;;11.48;61.79;99682.08;107511;1253;72784;-38
2024/04/10 04:21:04;;;;;;;10.30;4.50;;;;;;;11.55;61.60;99687.02;107516;1253;60849;-38
2024/04/10 04:23:31;;;;;;;8.20;4.40;;;;;;;11.61;61.59;99684.42;107547;1254;60320;-38
2024/04/10 04:25:59;;;;;;;10.20;4.80;;;;;;;11.68;61.53;99687.20;107477;1253;73829;-38
2024/04/10 04:28:27;;;;;;;6.50;5.10;;;;;;;11.73;61.36;99690.67;107495;1254;67776;-38
2024/04/10 04:30:54;;;;;;;8.00;4.60;;;;;;;11.80;60.93;99691.73;107517;1254;71382;-38
2024/04/10 04:33:21;;;;;;;9.60;4.50;;;;;;;11.85;60.76;99689.41;107542;1254;60192;-38
2024/04/10 04:35:50;;;;;;;10.10;4.60;;;;;;;11.92;60.88;99691.86;107484;1254;60515;-38
2024/04/10 04:38:17;;;;;;;10.20;4.90;;;;;;;11.98;60.76;99697.35;107369;1253;73831;-38
2024/04/10 04:40:47;;;;;;;9.00;4.90;;;;;;;12.05;60.55;99701.12;107536;1254;66656;-38
2024/04/10 04:43:15;;;;;;;8.90;4.80;;;;;;;12.12;60.55;99709.02;107390;1254;71154;-38
2024/04/10 04:45:43;;;;;;;6.90;5.00;;;;;;;12.19;60.63;99711.23;107490;1254;60313;-38
2024/04/10 04:48:11;;;;;;;7.80;4.40;;;;;;;12.27;60.90;99718.83;107626;1253;60313;-38
2024/04/10 04:50:41;;;;;;;7.80;4.80;;;;;;;12.35;60.82;99721.77;107580;1253;72787;-38
2024/04/10 04:53:10;;;;;;;6.60;4.50;;;;;;;12.43;60.70;99724.25;107360;1259;66707;-38
2024/04/10 04:55:38;;;;;;;7.30;4.20;;;;;;;12.52;60.49;99721.73;107491;1254;71562;-38
2024/04/10 04:58:06;;;;;;;9.40;4.40;;;;;;;12.61;60.15;99720.75;107531;1254;60329;-38
2024/04/10 05:00:34;;;;;;;7.30;4.00;;;;;;;12.71;59.71;99718.95;107486;1254;60356;-38
2024/04/10 05:03:06;;;;;;;6.90;4.10;;;;;;;12.82;59.89;99718.97;107553;1254;73869;-38
2024/04/10 05:05:33;;;;;;;5.50;3.40;;;;;;;12.92;59.63;99721.08;107502;1254;66714;-38
2024/04/10 05:08:02;;;;;;;8.50;3.90;;;;;;;13.03;58.82;99726.60;107531;1254;72769;-38
2024/04/10 05:10:29;;;;;;;5.60;3.80;;;;;;;13.14;58.10;99724.84;106736;1254;1003095;-38
2024/04/10 05:12:57;;;;;;;7.30;3.60;;;;;;;13.27;57.30;99726.59;107401;1254;61189;-38
2024/04/10 05:15:25;;;;;;;9.70;3.90;;;;;;;13.40;56.59;99723.02;107490;1254;74861;-37
2024/04/10 05:17:52;;;;;;;6.80;4.30;;;;;;;13.55;55.90;99722.28;107498;1254;67125;-38
2024/04/10 05:20:20;;;;;;;7.00;4.10;;;;;;;13.69;55.45;99724.80;107499;1258;72818;-37
2024/04/10 05:22:48;;;;;;;7.10;4.20;;;;;;;13.82;55.28;99724.17;107457;1254;61166;-38
2024/04/10 05:25:15;;;;;;;9.20;4.20;;;;;;;13.96;55.28;99725.73;107550;1254;61311;-38
2024/04/10 05:27:43;;;;;;;7.40;4.70;;;;;;;14.07;55.38;99733.40;107494;1254;76968;-37
2024/04/10 05:30:12;;;;;;;8.60;4.50;;;;;;;14.18;55.43;99730.79;107471;1254;67846;-37
2024/04/10 05:32:40;;;;;;;7.80;4.60;;;;;;;14.28;55.49;99735.96;107407;1258;71451;-37
2024/04/10 05:35:12;;;;;;;10.10;4.60;;;;;;;14.38;55.59;99739.04;107486;1254;61305;-37
2024/04/10 05:37:40;;;;;;;7.60;4.40;;;;;;;14.48;55.92;99743.04;107510;1254;61250;-37
2024/04/10 05:40:10;;;;;;;6.90;3.80;;;;;;;14.59;55.42;99743.20;107456;1254;74497;-37
2024/04/10 05:42:38;;;;;;;6.70;4.20;;;;;;;14.70;54.63;99747.05;107544;1259;69873;-37
2024/04/10 05:45:08;;;;;;;6.30;4.20;;;;;;;14.81;54.25;99745.73;107568;1254;72812;-37
2024/04/10 05:47:36;;;;;;;9.20;3.80;;;;;;;14.92;54.30;99752.30;107504;1254;61204;-38
2024/04/10 05:50:08;;;;;;;5.20;3.80;;;;;;;15.03;54.09;99750.74;107527;1254;61090;-38
2024/04/10 05:52:36;;;;;;;9.10;3.90;;;;;;;15.15;53.64;99756.21;107495;1255;73448;-38
2024/04/10 05:55:04;;;;;;;6.40;3.80;;;;;;;15.27;53.50;99757.54;107511;1259;67805;-37
2024/04/10 05:57:31;;;;;;;12.60;4.00;;;;;;;15.39;53.15;99757.77;107506;1254;72782;-38
2024/04/10 05:59:59;;;;;;;5.50;3.70;;;;;;;15.49;52.54;99760.32;107494;1254;61143;-38
2024/04/10 06:02:27;;;;;;;5.80;3.90;;;;;;;15.62;52.41;99762.05;107518;1254;61116;-38
2024/04/10 06:04:55;;;;;;;8.30;3.40;;;;;;;15.74;52.09;99759.91;107558;1254;73741;-38
2024/04/10 06:07:23;;;;;;;8.00;3.40;;;;;;;15.86;51.67;99757.70;107502;1254;67774;-38
2024/04/10 06:09:55;;;;;;;6.00;3.40;;;;;;;15.99;51.58;99757.90;107573;1259;73071;-37
2024/04/10 06:12:23;;;;;;;10.30;3.50;;;;;;;16.12;51.39;99758.58;107517;1254;62085;-38
2024/04/10 06:14:52;;;;;;;5.40;3.40;;;;;;;16.26;51.25;99763.70;107541;1254;61334;-38
2024/04/10 06:17:24;;;;;;;8.10;3.40;;;;;;;16.41;50.99;99763.24;107513;1258;75000;-38
2024/04/10 06:19:55;;;;;;;5.50;3.30;;;;;;;16.57;50.30;99767.66;107557;1258;66726;-38
2024/04/10 06:22:23;;;;;;;6.80;3.40;;;;;;;16.71;49.77;99769.80;107528;1255;72847;-37
2024/04/10 06:24:51;;;;;;;6.90;3.30;;;;;;;16.87;48.85;99773.09;107520;1254;60516;-38
2024/04/10 06:27:19;;;;;;;6.60;3.40;;;;;;;17.02;49.27;99773.48;107399;1254;61263;-38
2024/04/10 06:29:47;;;;;;;9.50;4.00;;;;;;;17.16;48.99;99773.55;107398;1254;73456;-38
2024/04/10 06:32:15;;;;;;;5.80;3.30;;;;;;;17.29;48.94;99775.25;107496;1254;66883;-38
2024/04/10 06:34:43;;;;;;;8.00;4.00;;;;;;;17.45;48.07;99773.18;107496;1254;72806;-38
2024/04/10 06:37:11;;;;;;;5.50;3.50;;;;;;;17.60;47.99;99772.92;107439;1254;62317;-38
2024/04/10 06:39:39;;;;;;;6.30;3.30;;;;;;;17.74;48.12;99774.06;107504;1253;60123;-38
2024/04/10 06:42:06;;;;;;;9.60;3.70;;;;;;;17.91;47.35;99774.55;107519;1253;75063;-38
2024/04/10 06:44:34;;;;;;;5.60;3.60;;;;;;;18.06;47.58;99776.21;107511;1254;68467;-38
2024/04/10 06:47:02;;;;;;;7.30;3.60;;;;;;;18.21;47.34;99781.86;107511;1258;72152;-38
2024/04/10 06:49:31;;;;;;;10.50;4.10;;;;;;;18.37;47.65;99781.14;107488;1254;61139;-38
2024/04/10 06:51:59;;;;;;;8.90;4.00;;;;;;;18.54;47.38;99786.14;107476;1254;60481;-38
2024/04/10 06:54:27;;;;;;;6.80;3.70;;;;;;;18.70;46.44;99786.60;107482;1254;76904;-38
2024/04/10 06:56:54;;;;;;;11.90;3.90;;;;;;;18.88;45.48;99781.83;107482;1254;67267;-38
2024/04/10 06:59:21;;;;;;;8.30;4.10;;;;;;;19.05;44.76;99784.27;107492;1254;73013;-38
2024/04/10 07:01:49;;;;;;;7.80;4.10;;;;;;;19.22;44.61;99785.46;107497;1254;60368;-38
2024/04/10 07:04:17;;;;;;;7.50;4.30;;;;;;;19.37;44.36;99790.27;107550;1253;59977;-38
2024/04/10 07:06:45;;;;;;;4.70;3.30;;;;;;;19.55;43.53;99795.91;107494;1254;76826;-38
2024/04/10 07:09:14;;;;;;;7.00;3.80;;;;;;;19.73;41.73;99793.21;107537;1254;66578;-38
2024/04/10 07:11:41;;;;;;;8.40;3.60;;;;;;;19.87;40.90;99790.05;107553;1254;72811;-38
2024/04/10 07:14:12;;;;;;;4.50;2.80;;;;;;;20.01;40.37;99794.99;107450;1254;61893;-38
2024/04/10 07:16:40;;;;;;;4.40;2.70;;;;;;;20.17;40.24;99794.48;107492;1254;61545;-38
2024/04/10 07:19:08;;;;;;;5.10;2.70;;;;;;;20.33;39.00;99797.11;107553;1254;74802;-38
2024/04/10 07:21:36;;;;;;;6.70;2.70;;;;;;;20.50;38.67;99796.42;107560;1258;66572;-38
2024/04/10 07:24:04;;;;;;;5.40;3.10;;;;;;;20.66;38.58;99792.32;107498;1258;73040;-38
2024/04/10 07:26:32;;;;;;;5.00;2.90;;;;;;;20.84;38.36;99794.24;107550;1254;61137;-38
2024/04/10 07:28:59;;;;;;;5.20;2.80;;;;;;;21.02;38.34;99796.77;107513;1254;61151;-38
2024/04/10 07:31:39;;;;;;;5.80;2.70;;;;;;;21.18;37.36;99794.48;107475;1253;76896;-38
2024/04/10 07:34:07;;;;;;;6.10;2.70;;;;;;;21.36;36.94;99799.92;107561;1254;66771;-38
2024/04/10 07:36:37;;;;;;;4.10;2.70;;;;;;;21.54;36.28;99797.08;107482;1258;72843;-38
2024/04/10 07:39:09;;;;;;;5.80;3.10;;;;;;;21.73;35.36;99798.93;107445;1254;61844;-38
2024/04/10 07:41:37;;;;;;;4.50;2.80;;;;;;;21.86;35.50;99796.84;107431;1254;61218;-38
2024/04/10 07:44:07;;;;;;;5.70;2.60;;;;;;;21.98;36.39;99798.21;107368;1253;74019;-38
2024/04/10 07:46:35;;;;;;;5.70;3.30;;;;;;;22.13;34.96;99797.42;107393;1254;67569;-38
2024/04/10 07:49:04;;;;;;;5.80;3.00;;;;;;;22.28;34.80;99796.79;107520;1254;72786;-38
2024/04/10 07:51:32;;;;;;;4.60;2.70;;;;;;;22.41;34.20;99804.71;107510;1254;60430;-38
2024/04/10 07:54:00;;;;;;;6.20;3.00;;;;;;;22.52;33.18;99806.85;107502;1253;61187;-38
2024/04/10 07:56:29;;;;;;;5.90;2.90;;;;;;;22.63;33.07;99804.13;107363;1254;74795;-38
2024/04/10 07:58:56;;;;;;;6.20;3.00;;;;;;;22.75;32.87;99803.81;107507;1254;68375;-38
2024/04/10 08:01:24;;;;;;;4.30;2.90;;;;;;;22.88;32.05;99806.50;107465;1254;72911;-38
2024/04/10 08:03:52;;;;;;;5.50;3.00;;;;;;;22.98;31.36;99804.04;107380;1254;61161;-38
2024/04/10 08:06:20;;;;;;;7.10;3.10;;;;;;;23.03;31.23;99804.47;107482;1254;62273;-38
2024/04/10 08:08:47;;;;;;;7.80;3.20;;;;;;;23.03;31.49;99802.02;107437;1254;74457;-38
2024/04/10 08:11:18;;;;;;;6.70;3.30;;;;;;;23.06;31.76;99801.55;107489;1254;68172;-38
2024/04/10 08:13:47;;;;;;;4.60;2.60;;;;;;;23.14;31.23;99804.13;107491;1253;71536;-38
2024/04/10 08:16:15;;;;;;;3.70;2.60;;;;;;;23.21;31.21;99798.50;107484;1254;61240;-38
2024/04/10 08:18:43;;;;;;;5.10;3.20;;;;;;;23.32;31.81;99799.55;107495;1254;61260;-38
2024/04/10 08:21:13;;;;;;;4.80;3.00;;;;;;;23.51;31.59;99801.52;107484;1254;74995;-38
2024/04/10 08:23:43;;;;;;;6.30;3.10;;;;;;;23.63;31.31;99797.78;107538;1254;66831;-38
2024/04/10 08:26:19;;;;;;;10.10;3.00;;;;;;;23.75;31.60;99795.80;107493;1257;72924;-38
2024/04/10 08:28:48;;;;;;;6.50;2.80;;;;;;;23.88;30.75;99796.64;107521;1254;62308;-38
2024/04/10 08:31:17;;;;;;;5.10;3.00;;;;;;;23.93;30.95;99793.95;107557;1254;62273;-38
2024/04/10 08:33:46;;;;;;;7.00;2.70;;;;;;;24.02;30.98;99791.64;107544;1254;75005;-38
2024/04/10 08:36:14;;;;;;;6.20;3.20;;;;;;;24.12;31.11;99789.52;107491;1254;66246;-38
2024/04/10 08:38:42;;;;;;;7.30;2.90;;;;;;;24.24;30.79;99791.00;107482;1254;71800;-38
2024/04/10 08:41:17;;;;;;;4.70;2.60;;;;;;;24.35;30.86;99792.57;107537;1254;61483;-38
2024/04/10 08:43:46;;;;;;;4.30;2.60;;;;;;;24.44;31.02;99789.84;107537;1254;61276;-38
2024/04/10 08:46:17;;;;;;;10.00;3.00;;;;;;;24.54;30.12;99789.29;107556;1254;74955;-38
2024/04/10 08:48:45;;;;;;;7.80;2.80;;;;;;;24.58;29.89;99790.77;107515;1253;66806;-38
2024/04/10 08:51:14;;;;;;;5.30;3.00;;;;;;;24.55;30.21;99785.52;107590;1254;73094;-38
2024/04/10 08:53:45;;;;;;;4.30;2.60;;;;;;;24.57;30.12;99784.27;107383;1259;61311;-38
2024/04/10 08:56:16;;;;;;;5.20;2.80;;;;;;;24.64;30.13;99784.30;107380;1254;61308;-38
2024/04/10 08:58:44;;;;;;;6.00;3.00;;;;;;;24.75;29.61;99780.23;107487;1254;74813;-38
2024/04/10 09:01:44;;;;;;;5.30;2.50;;;;;;;24.84;29.75;99783.84;107490;1254;68001;-38
2024/04/10 09:04:17;;;;;;;3.70;2.60;;;;;;;24.97;29.66;99788.11;107323;1254;71164;-39
2024/04/10 09:06:45;;;;;;;5.10;2.60;;;;;;;25.02;29.68;99782.37;107611;1253;61557;-39
2024/04/10 09:09:14;;;;;;;4.40;2.50;;;;;;;25.14;29.20;99779.21;107508;1259;62287;-38
2024/04/10 09:11:42;;;;;;;5.70;2.30;;;;;;;25.25;28.93;99780.49;107475;1254;76731;-38
2024/04/10 09:14:11;;;;;;;6.30;3.10;;;;;;;25.34;28.63;99780.02;107490;1254;68192;-38
2024/04/10 09:16:39;;;;;;;8.40;2.80;;;;;;;25.46;28.71;99779.20;107472;1252;72827;-38
2024/04/10 09:19:11;;;;;;;5.90;2.80;;;;;;;25.55;28.28;99786.05;107408;1254;61237;-38
2024/04/10 09:21:39;;;;;;;6.10;3.00;;;;;;;25.58;28.13;99786.99;107509;1254;61088;-38
2024/04/10 09:24:09;;;;;;;5.10;2.50;;;;;;;25.57;27.94;99791.65;107420;1253;75035;-38
2024/04/10 09:26:36;;;;;;;4.90;2.50;;;;;;;25.55;28.16;99788.05;107515;1254;67835;-38
2024/04/10 09:29:12;;;;;;;4.90;2.40;;;;;;;25.62;28.34;99789.30;107496;1254;72468;-38
2024/04/10 09:31:41;;;;;;;9.80;3.20;;;;;;;25.83;27.74;99788.77;107438;1254;62352;-39
2024/04/10 09:34:10;;;;;;;6.20;2.90;;;;;;;26.02;28.05;99793.30;107511;1254;60585;-38
2024/04/10 09:36:38;;;;;;;4.40;2.80;;;;;;;26.20;27.73;99789.95;107465;1253;76916;-38
2024/04/10 09:39:07;;;;;;;6.00;2.90;;;;;;;26.30;27.60;99791.85;107486;1254;66809;-39
2024/04/10 09:41:36;;;;;;;7.90;3.10;;;;;;;26.43;27.07;99794.15;107473;1254;71974;-38
2024/04/10 09:44:05;;;;;;;7.20;3.10;;;;;;;26.46;26.78;99794.14;107531;1254;61180;-39
2024/04/10 09:46:37;;;;;;;3.90;2.70;;;;;;;26.43;27.11;99790.73;107568;1252;61132;-39
2024/04/10 09:49:11;;;;;;;8.40;2.80;;;;;;;26.46;26.57;99783.89;107498;1254;73450;-39
2024/04/10 09:51:40;;;;;;;7.50;3.10;;;;;;;26.47;26.95;99783.92;107504;1254;69816;-38
2024/04/10 09:54:08;;;;;;;4.60;2.80;;;;;;;26.47;26.71;99784.73;107506;1254;71547;-38
2024/04/10 09:56:36;;;;;;;6.80;2.90;;;;;;;26.49;26.33;99786.70;107459;1254;62283;-38
2024/04/10 09:59:06;;;;;;;7.10;2.50;;;;;;;26.52;26.63;99789.90;107614;1254;61314;-38
2024/04/10 10:01:33;;;;;;;4.40;2.80;;;;;;;26.58;26.37;99787.27;107399;1254;75052;-38
2024/04/10 10:04:01;;;;;;;5.80;2.80;;;;;;;26.65;26.70;99778.98;107399;1254;65948;-38
2024/04/10 10:06:31;;;;;;;6.20;3.10;;;;;;;26.72;26.68;99783.76;107403;1258;74878;-38
2024/04/10 10:08:58;;;;;;;9.80;2.80;;;;;;;26.78;26.70;99783.28;107443;1254;59947;-38
2024/04/10 10:11:27;;;;;;;6.60;2.90;;;;;;;26.86;26.76;99786.64;107501;1258;62357;-38
2024/04/10 10:13:59;;;;;;;;;;;;;;;26.96;26.28;99786.95;107513;1254;73485;-38
2024/04/10 10:16:27;;;;;;;5.80;3.10;;;;;;;27.00;26.20;99789.04;107519;1254;69762;-38
2024/04/10 10:18:59;;;;;;;5.50;2.90;;;;;;;27.01;25.79;99785.83;107487;1254;72787;-39
2024/04/10 10:21:28;;;;;;;5.30;2.90;;;;;;;27.04;25.92;99778.59;107556;1254;61294;-39
2024/04/10 10:24:04;;;;;;;6.30;3.20;;;;;;;27.08;26.08;99777.63;107554;1254;62198;-39
2024/04/10 10:26:32;;;;;;;6.20;2.80;;;;;;;27.17;25.86;99777.48;107553;1254;75027;-39
2024/04/10 10:29:06;;;;;;;6.80;2.80;;;;;;;27.32;25.90;99782.82;107500;1254;66632;-39
2024/04/10 10:31:38;;;;;;;7.20;2.90;;;;;;;27.51;25.77;99778.67;107465;1254;72978;-39
2024/04/10 10:34:12;;;;;;;5.00;2.70;;;;;;;27.73;25.36;99780.15;107519;1254;60338;-39
2024/04/10 10:36:40;;;;;;;4.80;2.80;;;;;;;27.89;24.99;99780.31;107524;1254;60653;-39
2024/04/10 10:39:16;;;;;;;5.90;2.70;;;;;;;27.94;24.52;99775.78;107528;1254;75014;-39
2024/04/10 10:41:44;;;;;;;7.80;3.00;;;;;;;28.02;24.61;99767.03;107564;1254;67071;-39
2024/04/10 10:44:22;;;;;;;5.30;3.10;;;;;;;28.14;24.49;99767.73;107489;1259;72419;-39
2024/04/10 10:46:50;;;;;;;4.50;2.90;;;;;;;28.25;24.53;99772.45;107535;1254;61360;-39
2024/04/10 10:49:18;;;;;;;6.80;3.00;;;;;;;28.28;24.45;99775.02;107491;1257;61773;-39
2024/04/10 10:51:46;;;;;;;8.40;2.70;;;;;;;28.28;24.21;99775.18;107536;1254;73828;-39
2024/04/10 10:54:13;;;;;;;4.60;2.90;;;;;;;28.26;24.54;99775.39;107507;1254;68095;-39
2024/04/10 10:56:41;;;;;;;13.00;3.40;;;;;;;28.27;23.52;99775.98;107363;1254;71549;-39
2024/04/10 10:59:08;;;;;;;5.10;2.80;;;;;;;28.27;23.61;99774.91;107483;1254;62264;-39
2024/04/10 11:01:43;;;;;;;7.20;2.90;;;;;;;28.31;23.67;99784.04;107495;1254;61142;-39
2024/04/10 11:04:14;;;;;;;4.80;2.60;;;;;;;28.36;23.89;99774.67;107498;1258;74056;-39
2024/04/10 11:06:42;;;;;;;4.00;2.50;;;;;;;28.40;23.38;99768.48;107414;1254;69844;-39
2024/04/10 11:09:12;;;;;;;5.30;2.60;;;;;;;28.53;23.81;99764.73;107308;1260;74863;-39
2024/04/10 11:11:40;;;;;;;6.30;3.10;;;;;;;28.74;23.93;99768.98;107416;1255;61265;-39
2024/04/10 11:14:13;;;;;;;5.60;2.60;;;;;;;28.94;23.88;99764.61;107460;1254;60157;-39
2024/04/10 11:16:41;;;;;;;5.90;2.80;;;;;;;28.99;23.55;99764.02;107517;1253;73439;-39
2024/04/10 11:19:09;;;;;;;4.80;2.60;;;;;;;28.98;23.58;99757.79;107478;1257;66707;-39
2024/04/10 11:21:36;;;;;;;5.80;2.50;;;;;;;29.05;23.62;99764.74;107490;1254;74851;-39
2024/04/10 11:24:07;;;;;;;9.80;3.10;;;;;;;29.23;23.38;99759.04;107458;1254;61211;-39
2024/04/10 11:26:34;;;;;;;7.10;2.80;;;;;;;29.39;22.86;99760.68;107505;1253;61087;-39
2024/04/10 11:29:02;;;;;;;5.10;2.70;;;;;;;29.41;22.85;99760.38;107494;1252;75077;-39
2024/04/10 11:31:30;;;;;;;5.40;2.80;;;;;;;29.42;22.61;99757.48;107504;1254;68498;-39
2024/04/10 11:33:57;;;;;;;3.90;2.40;;;;;;;29.47;22.74;99755.42;107488;1259;72806;-39